sensor_id;sensor_type;location;lat;lon;timestamp;temperature;humidity
78325;DHT22;67584;51.400;6.692;2023-11-21T00:02:22;6.70;92.20
78325;DHT22;67584;51.400;6.692;2023-11-21T00:04:48;7.00;92.20
78325;DHT22;67584;51.400;6.692;2023-11-21T00:07:15;7.00;92.20
78325;DHT22;67584;51.400;6.692;2023-11-21T00:09:41;6.90;92.20
78325;DHT22;67584;51.400;6.692;2023-11-21T00:12:08;7.10;92.20
78325;DHT22;67584;51.400;6.692;2023-11-21T00:14:38;6.80;92.20
78325;DHT22;67584;51.400;6.692;2023-11-21T00:17:04;7.10;92.20
78325;DHT22;67584;51.400;6.692;2023-11-21T00:19:31;6.90;92.20
78325;DHT22;67584;51.400;6.692;2023-11-21T00:21:57;7.20;92.20
78325;DHT22;67584;51.400;6.692;2023-11-21T00:24:23;7.30;92.20
78325;DHT22;67584;51.400;6.692;2023-11-21T00:26:50;7.10;92.20
78325;DHT22;67584;51.400;6.692;2023-11-21T00:29:17;7.20;92.20
78325;DHT22;67584;51.400;6.692;2023-11-21T00:31:44;7.20;92.20
78325;DHT22;67584;51.400;6.692;2023-11-21T00:34:12;7.20;92.20
78325;DHT22;67584;51.400;6.692;2023-11-21T00:36:38;7.10;92.20
78325;DHT22;67584;51.400;6.692;2023-11-21T00:39:04;7.30;92.20
78325;DHT22;67584;51.400;6.692;2023-11-21T00:41:31;7.10;92.20
78325;DHT22;67584;51.400;6.692;2023-11-21T00:43:57;7.20;92.20
78325;DHT22;67584;51.400;6.692;2023-11-21T00:46:23;6.90;92.20
78325;DHT22;67584;51.400;6.692;2023-11-21T00:48:49;7.30;92.20
78325;DHT22;67584;51.400;6.692;2023-11-21T00:51:16;7.10;92.20
78325;DHT22;67584;51.400;6.692;2023-11-21T00:53:43;7.00;92.20
78325;DHT22;67584;51.400;6.692;2023-11-21T00:56:08;7.20;92.20
78325;DHT22;67584;51.400;6.692;2023-11-21T00:58:34;7.00;92.20
78325;DHT22;67584;51.400;6.692;2023-11-21T01:01:00;7.20;92.20
78325;DHT22;67584;51.400;6.692;2023-11-21T01:03:26;6.90;92.20
78325;DHT22;67584;51.400;6.692;2023-11-21T01:05:52;7.20;92.20
78325;DHT22;67584;51.400;6.692;2023-11-21T01:08:17;7.20;92.20
78325;DHT22;67584;51.400;6.692;2023-11-21T01:10:43;7.20;92.20
78325;DHT22;67584;51.400;6.692;2023-11-21T01:13:09;7.10;92.20
78325;DHT22;67584;51.400;6.692;2023-11-21T01:15:36;7.10;92.20
78325;DHT22;67584;51.400;6.692;2023-11-21T01:18:03;7.10;92.20
78325;DHT22;67584;51.400;6.692;2023-11-21T01:20:29;7.20;92.20
78325;DHT22;67584;51.400;6.692;2023-11-21T01:22:54;7.30;92.20
78325;DHT22;67584;51.400;6.692;2023-11-21T01:25:20;6.90;92.20
78325;DHT22;67584;51.400;6.692;2023-11-21T01:27:48;7.30;92.20
78325;DHT22;67584;51.400;6.692;2023-11-21T01:30:13;7.40;92.20
78325;DHT22;67584;51.400;6.692;2023-11-21T01:32:39;7.40;92.20
78325;DHT22;67584;51.400;6.692;2023-11-21T01:35:06;7.20;92.20
78325;DHT22;67584;51.400;6.692;2023-11-21T01:37:32;7.40;92.20
78325;DHT22;67584;51.400;6.692;2023-11-21T01:40:01;7.30;92.20
78325;DHT22;67584;51.400;6.692;2023-11-21T01:42:30;7.40;92.20
78325;DHT22;67584;51.400;6.692;2023-11-21T01:44:56;7.50;92.20
78325;DHT22;67584;51.400;6.692;2023-11-21T01:47:21;7.50;92.20
78325;DHT22;67584;51.400;6.692;2023-11-21T01:49:47;7.40;92.20
78325;DHT22;67584;51.400;6.692;2023-11-21T01:52:13;7.50;92.20
78325;DHT22;67584;51.400;6.692;2023-11-21T01:54:41;7.50;92.20
78325;DHT22;67584;51.400;6.692;2023-11-21T01:57:06;7.60;92.20
78325;DHT22;67584;51.400;6.692;2023-11-21T01:59:36;7.20;92.20
78325;DHT22;67584;51.400;6.692;2023-11-21T02:02:04;7.50;92.20
78325;DHT22;67584;51.400;6.692;2023-11-21T02:04:34;7.50;92.20
78325;DHT22;67584;51.400;6.692;2023-11-21T02:07:01;7.30;92.20
78325;DHT22;67584;51.400;6.692;2023-11-21T02:09:27;7.50;92.20
78325;DHT22;67584;51.400;6.692;2023-11-21T02:11:54;7.40;92.20
78325;DHT22;67584;51.400;6.692;2023-11-21T02:14:21;7.50;92.20
78325;DHT22;67584;51.400;6.692;2023-11-21T02:16:51;7.60;92.20
78325;DHT22;67584;51.400;6.692;2023-11-21T02:19:21;7.50;92.20
78325;DHT22;67584;51.400;6.692;2023-11-21T02:21:57;7.70;92.20
78325;DHT22;67584;51.400;6.692;2023-11-21T02:24:26;7.50;92.20
78325;DHT22;67584;51.400;6.692;2023-11-21T02:26:52;7.70;92.20
78325;DHT22;67584;51.400;6.692;2023-11-21T02:29:21;7.60;92.20
78325;DHT22;67584;51.400;6.692;2023-11-21T02:31:50;7.50;92.20
78325;DHT22;67584;51.400;6.692;2023-11-21T02:34:17;7.70;92.20
78325;DHT22;67584;51.400;6.692;2023-11-21T02:36:46;7.40;92.20
78325;DHT22;67584;51.400;6.692;2023-11-21T02:39:15;7.70;92.20
78325;DHT22;67584;51.400;6.692;2023-11-21T02:41:42;7.60;92.20
78325;DHT22;67584;51.400;6.692;2023-11-21T02:44:08;7.80;92.20
78325;DHT22;67584;51.400;6.692;2023-11-21T02:46:34;7.60;92.20
78325;DHT22;67584;51.400;6.692;2023-11-21T02:49:03;7.80;92.20
78325;DHT22;67584;51.400;6.692;2023-11-21T02:51:33;7.80;92.20
78325;DHT22;67584;51.400;6.692;2023-11-21T02:53:59;7.80;92.20
78325;DHT22;67584;51.400;6.692;2023-11-21T02:56:27;7.70;92.20
78325;DHT22;67584;51.400;6.692;2023-11-21T02:58:55;7.60;92.20
78325;DHT22;67584;51.400;6.692;2023-11-21T03:01:22;7.90;92.20
78325;DHT22;67584;51.400;6.692;2023-11-21T03:03:49;7.70;92.20
78325;DHT22;67584;51.400;6.692;2023-11-21T03:06:20;7.80;92.20
78325;DHT22;67584;51.400;6.692;2023-11-21T03:08:46;7.60;92.20
78325;DHT22;67584;51.400;6.692;2023-11-21T03:11:12;7.80;92.20
78325;DHT22;67584;51.400;6.692;2023-11-21T03:13:42;7.80;92.20
78325;DHT22;67584;51.400;6.692;2023-11-21T03:16:11;7.90;92.20
78325;DHT22;67584;51.400;6.692;2023-11-21T03:18:40;7.90;92.20
78325;DHT22;67584;51.400;6.692;2023-11-21T03:21:06;7.80;92.20
78325;DHT22;67584;51.400;6.692;2023-11-21T03:23:34;7.80;92.20
78325;DHT22;67584;51.400;6.692;2023-11-21T03:26:02;7.80;92.20
78325;DHT22;67584;51.400;6.692;2023-11-21T03:28:29;7.80;92.20
78325;DHT22;67584;51.400;6.692;2023-11-21T03:30:56;7.80;92.20
78325;DHT22;67584;51.400;6.692;2023-11-21T03:33:23;7.90;92.20
78325;DHT22;67584;51.400;6.692;2023-11-21T03:35:48;7.90;92.20
78325;DHT22;67584;51.400;6.692;2023-11-21T03:38:15;7.90;92.20
78325;DHT22;67584;51.400;6.692;2023-11-21T03:40:41;7.90;92.20
78325;DHT22;67584;51.400;6.692;2023-11-21T03:43:07;7.90;92.20
78325;DHT22;67584;51.400;6.692;2023-11-21T03:45:33;7.90;92.20
78325;DHT22;67584;51.400;6.692;2023-11-21T03:47:59;7.90;92.20
78325;DHT22;67584;51.400;6.692;2023-11-21T03:50:29;7.80;92.20
78325;DHT22;67584;51.400;6.692;2023-11-21T03:52:54;7.80;92.20
78325;DHT22;67584;51.400;6.692;2023-11-21T03:55:20;7.80;92.20
78325;DHT22;67584;51.400;6.692;2023-11-21T03:57:46;7.60;92.20
78325;DHT22;67584;51.400;6.692;2023-11-21T04:00:12;7.80;92.20
78325;DHT22;67584;51.400;6.692;2023-11-21T04:02:38;7.80;92.20
78325;DHT22;67584;51.400;6.692;2023-11-21T04:05:05;7.60;92.20
78325;DHT22;67584;51.400;6.692;2023-11-21T04:07:32;7.70;92.20
78325;DHT22;67584;51.400;6.692;2023-11-21T04:09:59;7.90;92.20
78325;DHT22;67584;51.400;6.692;2023-11-21T04:12:25;7.80;92.20
78325;DHT22;67584;51.400;6.692;2023-11-21T04:14:51;7.80;92.20
78325;DHT22;67584;51.400;6.692;2023-11-21T04:17:19;7.80;92.20
78325;DHT22;67584;51.400;6.692;2023-11-21T04:19:46;7.60;92.20
78325;DHT22;67584;51.400;6.692;2023-11-21T04:22:12;7.50;92.20
78325;DHT22;67584;51.400;6.692;2023-11-21T04:24:38;7.50;92.20
78325;DHT22;67584;51.400;6.692;2023-11-21T04:27:03;7.50;92.20
78325;DHT22;67584;51.400;6.692;2023-11-21T04:29:29;7.40;92.20
78325;DHT22;67584;51.400;6.692;2023-11-21T04:31:55;7.40;92.20
78325;DHT22;67584;51.400;6.692;2023-11-21T04:34:21;7.60;92.20
78325;DHT22;67584;51.400;6.692;2023-11-21T04:36:46;7.50;92.20
78325;DHT22;67584;51.400;6.692;2023-11-21T04:39:12;7.70;92.20
78325;DHT22;67584;51.400;6.692;2023-11-21T04:41:38;7.80;92.20
78325;DHT22;67584;51.400;6.692;2023-11-21T04:44:06;7.80;92.20
78325;DHT22;67584;51.400;6.692;2023-11-21T04:46:31;7.80;92.20
78325;DHT22;67584;51.400;6.692;2023-11-21T04:48:58;7.80;92.20
78325;DHT22;67584;51.400;6.692;2023-11-21T04:51:23;7.80;92.20
78325;DHT22;67584;51.400;6.692;2023-11-21T04:53:49;7.80;92.20
78325;DHT22;67584;51.400;6.692;2023-11-21T04:56:15;7.80;92.20
78325;DHT22;67584;51.400;6.692;2023-11-21T04:58:41;7.80;92.20
78325;DHT22;67584;51.400;6.692;2023-11-21T05:01:07;7.80;92.20
78325;DHT22;67584;51.400;6.692;2023-11-21T05:03:33;7.60;92.20
78325;DHT22;67584;51.400;6.692;2023-11-21T05:06:02;7.70;92.20
78325;DHT22;67584;51.400;6.692;2023-11-21T05:08:30;7.50;92.20
78325;DHT22;67584;51.400;6.692;2023-11-21T05:10:56;7.60;92.20
78325;DHT22;67584;51.400;6.692;2023-11-21T05:13:22;7.50;92.20
78325;DHT22;67584;51.400;6.692;2023-11-21T05:15:55;7.40;92.20
78325;DHT22;67584;51.400;6.692;2023-11-21T05:18:24;7.30;92.20
78325;DHT22;67584;51.400;6.692;2023-11-21T05:20:52;7.20;92.20
78325;DHT22;67584;51.400;6.692;2023-11-21T05:23:19;7.20;92.20
78325;DHT22;67584;51.400;6.692;2023-11-21T05:25:45;7.20;92.20
78325;DHT22;67584;51.400;6.692;2023-11-21T05:28:12;7.20;92.20
78325;DHT22;67584;51.400;6.692;2023-11-21T05:30:37;7.20;92.20
78325;DHT22;67584;51.400;6.692;2023-11-21T05:33:05;7.10;92.20
78325;DHT22;67584;51.400;6.692;2023-11-21T05:35:30;7.20;92.20
78325;DHT22;67584;51.400;6.692;2023-11-21T05:37:56;7.20;92.20
78325;DHT22;67584;51.400;6.692;2023-11-21T05:40:22;7.40;92.20
78325;DHT22;67584;51.400;6.692;2023-11-21T05:42:48;7.40;92.20
78325;DHT22;67584;51.400;6.692;2023-11-21T05:45:14;7.60;92.20
78325;DHT22;67584;51.400;6.692;2023-11-21T05:47:41;7.70;92.20
78325;DHT22;67584;51.400;6.692;2023-11-21T05:50:11;7.60;92.20
78325;DHT22;67584;51.400;6.692;2023-11-21T05:52:38;7.70;92.20
78325;DHT22;67584;51.400;6.692;2023-11-21T05:55:05;7.70;92.20
78325;DHT22;67584;51.400;6.692;2023-11-21T05:57:34;7.70;92.20
78325;DHT22;67584;51.400;6.692;2023-11-21T06:00:14;7.90;92.20
78325;DHT22;67584;51.400;6.692;2023-11-21T06:02:51;7.80;92.20
78325;DHT22;67584;51.400;6.692;2023-11-21T06:05:19;7.80;92.20
78325;DHT22;67584;51.400;6.692;2023-11-21T06:07:45;7.80;92.20
78325;DHT22;67584;51.400;6.692;2023-11-21T06:10:12;7.80;92.20
78325;DHT22;67584;51.400;6.692;2023-11-21T06:12:40;7.80;92.20
78325;DHT22;67584;51.400;6.692;2023-11-21T06:15:09;7.90;92.20
78325;DHT22;67584;51.400;6.692;2023-11-21T06:17:38;7.90;92.20
78325;DHT22;67584;51.400;6.692;2023-11-21T06:20:07;7.90;92.20
78325;DHT22;67584;51.400;6.692;2023-11-21T06:22:43;7.80;92.20
78325;DHT22;67584;51.400;6.692;2023-11-21T06:25:11;7.90;92.20
78325;DHT22;67584;51.400;6.692;2023-11-21T06:27:48;7.80;92.20
78325;DHT22;67584;51.400;6.692;2023-11-21T06:30:14;8.00;92.20
78325;DHT22;67584;51.400;6.692;2023-11-21T06:32:41;7.70;92.20
78325;DHT22;67584;51.400;6.692;2023-11-21T06:35:08;7.80;92.20
78325;DHT22;67584;51.400;6.692;2023-11-21T06:37:36;7.90;92.20
78325;DHT22;67584;51.400;6.692;2023-11-21T06:40:02;8.00;92.20
78325;DHT22;67584;51.400;6.692;2023-11-21T06:42:29;8.00;92.20
78325;DHT22;67584;51.400;6.692;2023-11-21T06:44:56;8.00;92.20
78325;DHT22;67584;51.400;6.692;2023-11-21T06:47:25;7.80;92.20
78325;DHT22;67584;51.400;6.692;2023-11-21T06:49:51;7.90;92.20
78325;DHT22;67584;51.400;6.692;2023-11-21T06:52:18;7.90;92.20
78325;DHT22;67584;51.400;6.692;2023-11-21T06:54:43;7.90;92.20
78325;DHT22;67584;51.400;6.692;2023-11-21T06:57:09;8.00;92.20
78325;DHT22;67584;51.400;6.692;2023-11-21T06:59:35;7.90;92.20
78325;DHT22;67584;51.400;6.692;2023-11-21T07:02:01;7.80;92.20
78325;DHT22;67584;51.400;6.692;2023-11-21T07:04:27;7.90;92.20
78325;DHT22;67584;51.400;6.692;2023-11-21T07:06:55;7.90;92.20
78325;DHT22;67584;51.400;6.692;2023-11-21T07:09:21;7.90;92.20
78325;DHT22;67584;51.400;6.692;2023-11-21T07:11:54;8.00;92.20
78325;DHT22;67584;51.400;6.692;2023-11-21T07:14:20;8.10;92.20
78325;DHT22;67584;51.400;6.692;2023-11-21T07:16:47;8.00;92.20
78325;DHT22;67584;51.400;6.692;2023-11-21T07:19:13;7.90;92.20
78325;DHT22;67584;51.400;6.692;2023-11-21T07:21:39;8.00;92.20
78325;DHT22;67584;51.400;6.692;2023-11-21T07:24:06;8.00;92.20
78325;DHT22;67584;51.400;6.692;2023-11-21T07:26:33;8.00;92.20
78325;DHT22;67584;51.400;6.692;2023-11-21T07:28:59;7.90;92.20
78325;DHT22;67584;51.400;6.692;2023-11-21T07:31:25;8.00;92.20
78325;DHT22;67584;51.400;6.692;2023-11-21T07:33:51;8.10;92.20
78325;DHT22;67584;51.400;6.692;2023-11-21T07:36:19;8.00;92.20
78325;DHT22;67584;51.400;6.692;2023-11-21T07:38:46;8.10;92.20
78325;DHT22;67584;51.400;6.692;2023-11-21T07:41:12;8.10;92.20
78325;DHT22;67584;51.400;6.692;2023-11-21T07:43:41;8.20;92.20
78325;DHT22;67584;51.400;6.692;2023-11-21T07:46:07;8.30;92.20
78325;DHT22;67584;51.400;6.692;2023-11-21T07:48:34;8.30;92.20
78325;DHT22;67584;51.400;6.692;2023-11-21T07:51:01;8.30;92.20
78325;DHT22;67584;51.400;6.692;2023-11-21T07:53:27;8.20;92.20
78325;DHT22;67584;51.400;6.692;2023-11-21T07:55:58;8.30;92.20
78325;DHT22;67584;51.400;6.692;2023-11-21T07:58:27;8.40;92.20
78325;DHT22;67584;51.400;6.692;2023-11-21T08:00:53;8.50;92.20
78325;DHT22;67584;51.400;6.692;2023-11-21T08:03:19;8.60;92.20
78325;DHT22;67584;51.400;6.692;2023-11-21T08:05:45;8.80;92.20
78325;DHT22;67584;51.400;6.692;2023-11-21T08:08:10;8.80;92.20
78325;DHT22;67584;51.400;6.692;2023-11-21T08:10:36;8.80;92.20
78325;DHT22;67584;51.400;6.692;2023-11-21T08:13:03;8.70;92.20
78325;DHT22;67584;51.400;6.692;2023-11-21T08:15:29;8.80;92.20
78325;DHT22;67584;51.400;6.692;2023-11-21T08:17:57;8.90;92.20
78325;DHT22;67584;51.400;6.692;2023-11-21T08:20:24;8.70;92.20
78325;DHT22;67584;51.400;6.692;2023-11-21T08:22:50;8.70;92.20
78325;DHT22;67584;51.400;6.692;2023-11-21T08:25:17;8.80;92.20
78325;DHT22;67584;51.400;6.692;2023-11-21T08:27:45;8.80;92.20
78325;DHT22;67584;51.400;6.692;2023-11-21T08:30:11;8.70;92.20
78325;DHT22;67584;51.400;6.692;2023-11-21T08:32:38;8.70;92.20
78325;DHT22;67584;51.400;6.692;2023-11-21T08:35:03;8.60;92.20
78325;DHT22;67584;51.400;6.692;2023-11-21T08:37:30;8.70;92.20
78325;DHT22;67584;51.400;6.692;2023-11-21T08:39:58;8.80;92.20
78325;DHT22;67584;51.400;6.692;2023-11-21T08:42:27;8.90;92.20
78325;DHT22;67584;51.400;6.692;2023-11-21T08:44:55;8.90;92.20
78325;DHT22;67584;51.400;6.692;2023-11-21T08:47:23;8.90;92.20
78325;DHT22;67584;51.400;6.692;2023-11-21T08:49:50;9.00;92.20
78325;DHT22;67584;51.400;6.692;2023-11-21T08:52:19;9.00;92.20
78325;DHT22;67584;51.400;6.692;2023-11-21T08:54:48;9.00;92.20
78325;DHT22;67584;51.400;6.692;2023-11-21T08:57:14;9.00;92.20
78325;DHT22;67584;51.400;6.692;2023-11-21T08:59:39;9.10;92.20
78325;DHT22;67584;51.400;6.692;2023-11-21T09:02:05;9.10;92.20
78325;DHT22;67584;51.400;6.692;2023-11-21T09:04:31;9.20;92.10
78325;DHT22;67584;51.400;6.692;2023-11-21T09:06:57;9.20;92.20
78325;DHT22;67584;51.400;6.692;2023-11-21T09:09:25;9.20;92.20
78325;DHT22;67584;51.400;6.692;2023-11-21T09:11:51;9.40;92.20
78325;DHT22;67584;51.400;6.692;2023-11-21T09:14:16;9.40;92.20
78325;DHT22;67584;51.400;6.692;2023-11-21T09:16:43;9.50;92.10
78325;DHT22;67584;51.400;6.692;2023-11-21T09:19:09;9.50;92.10
78325;DHT22;67584;51.400;6.692;2023-11-21T09:21:34;9.50;92.00
78325;DHT22;67584;51.400;6.692;2023-11-21T09:24:00;9.40;92.00
78325;DHT22;67584;51.400;6.692;2023-11-21T09:26:26;9.60;92.10
78325;DHT22;67584;51.400;6.692;2023-11-21T09:28:51;9.60;92.00
78325;DHT22;67584;51.400;6.692;2023-11-21T09:31:18;9.70;92.00
78325;DHT22;67584;51.400;6.692;2023-11-21T09:33:48;9.80;91.90
78325;DHT22;67584;51.400;6.692;2023-11-21T09:36:14;9.90;91.90
78325;DHT22;67584;51.400;6.692;2023-11-21T09:38:42;9.90;91.50
78325;DHT22;67584;51.400;6.692;2023-11-21T09:41:23;10.00;91.40
78325;DHT22;67584;51.400;6.692;2023-11-21T09:43:55;9.80;91.00
78325;DHT22;67584;51.400;6.692;2023-11-21T09:46:23;9.80;91.30
78325;DHT22;67584;51.400;6.692;2023-11-21T09:48:51;9.70;90.90
78325;DHT22;67584;51.400;6.692;2023-11-21T09:51:24;9.80;91.00
78325;DHT22;67584;51.400;6.692;2023-11-21T09:53:52;9.70;90.90
78325;DHT22;67584;51.400;6.692;2023-11-21T09:56:19;9.70;90.80
78325;DHT22;67584;51.400;6.692;2023-11-21T09:58:53;9.70;91.20
78325;DHT22;67584;51.400;6.692;2023-11-21T10:01:20;9.70;90.80
78325;DHT22;67584;51.400;6.692;2023-11-21T10:03:46;9.70;90.80
78325;DHT22;67584;51.400;6.692;2023-11-21T10:06:13;9.60;90.90
78325;DHT22;67584;51.400;6.692;2023-11-21T10:08:40;9.70;91.10
78325;DHT22;67584;51.400;6.692;2023-11-21T10:11:07;9.70;91.10
78325;DHT22;67584;51.400;6.692;2023-11-21T10:13:34;9.90;91.20
78325;DHT22;67584;51.400;6.692;2023-11-21T10:16:00;10.00;89.90
78325;DHT22;67584;51.400;6.692;2023-11-21T10:18:32;10.20;89.90
78325;DHT22;67584;51.400;6.692;2023-11-21T10:21:00;10.40;89.40
78325;DHT22;67584;51.400;6.692;2023-11-21T10:23:26;10.50;89.10
78325;DHT22;67584;51.400;6.692;2023-11-21T10:25:52;10.50;88.90
78325;DHT22;67584;51.400;6.692;2023-11-21T10:28:18;10.50;88.10
78325;DHT22;67584;51.400;6.692;2023-11-21T10:30:46;10.30;87.90
78325;DHT22;67584;51.400;6.692;2023-11-21T10:33:12;10.30;88.70
78325;DHT22;67584;51.400;6.692;2023-11-21T10:35:48;10.50;88.70
78325;DHT22;67584;51.400;6.692;2023-11-21T10:38:21;10.50;87.70
78325;DHT22;67584;51.400;6.692;2023-11-21T10:40:49;10.50;87.80
78325;DHT22;67584;51.400;6.692;2023-11-21T10:43:15;10.70;88.20
78325;DHT22;67584;51.400;6.692;2023-11-21T10:45:42;10.70;87.60
78325;DHT22;67584;51.400;6.692;2023-11-21T10:48:09;10.90;87.00
78325;DHT22;67584;51.400;6.692;2023-11-21T10:50:38;10.80;86.60
78325;DHT22;67584;51.400;6.692;2023-11-21T10:53:04;10.80;86.30
78325;DHT22;67584;51.400;6.692;2023-11-21T10:55:31;10.70;86.60
78325;DHT22;67584;51.400;6.692;2023-11-21T10:58:02;11.00;87.30
78325;DHT22;67584;51.400;6.692;2023-11-21T11:00:30;11.20;86.90
78325;DHT22;67584;51.400;6.692;2023-11-21T11:02:56;11.50;86.90
78325;DHT22;67584;51.400;6.692;2023-11-21T11:05:25;11.60;86.30
78325;DHT22;67584;51.400;6.692;2023-11-21T11:07:59;11.50;85.30
78325;DHT22;67584;51.400;6.692;2023-11-21T11:10:28;11.30;85.30
78325;DHT22;67584;51.400;6.692;2023-11-21T11:12:58;11.20;86.00
78325;DHT22;67584;51.400;6.692;2023-11-21T11:15:27;11.10;86.10
78325;DHT22;67584;51.400;6.692;2023-11-21T11:17:54;11.10;85.40
78325;DHT22;67584;51.400;6.692;2023-11-21T11:20:25;11.30;86.00
78325;DHT22;67584;51.400;6.692;2023-11-21T11:27:59;11.90;84.50
78325;DHT22;67584;51.400;6.692;2023-11-21T11:33:34;11.60;84.60
78325;DHT22;67584;51.400;6.692;2023-11-21T11:36:06;11.40;85.20
78325;DHT22;67584;51.400;6.692;2023-11-21T11:38:34;11.20;85.00
78325;DHT22;67584;51.400;6.692;2023-11-21T11:41:06;11.20;85.80
78325;DHT22;67584;51.400;6.692;2023-11-21T11:43:32;11.30;85.50
78325;DHT22;67584;51.400;6.692;2023-11-21T11:46:03;11.30;85.70
78325;DHT22;67584;51.400;6.692;2023-11-21T11:48:29;11.40;85.60
78325;DHT22;67584;51.400;6.692;2023-11-21T11:51:05;11.30;85.40
78325;DHT22;67584;51.400;6.692;2023-11-21T11:53:41;11.30;85.70
78325;DHT22;67584;51.400;6.692;2023-11-21T11:58:49;11.40;85.80
78325;DHT22;67584;51.400;6.692;2023-11-21T12:01:19;11.50;85.70
78325;DHT22;67584;51.400;6.692;2023-11-21T12:06:41;11.80;86.00
78325;DHT22;67584;51.400;6.692;2023-11-21T12:09:07;11.50;85.80
78325;DHT22;67584;51.400;6.692;2023-11-21T12:11:33;11.60;86.10
78325;DHT22;67584;51.400;6.692;2023-11-21T12:14:02;11.60;86.00
78325;DHT22;67584;51.400;6.692;2023-11-21T12:16:32;11.70;85.50
78325;DHT22;67584;51.400;6.692;2023-11-21T12:18:58;11.50;85.40
78325;DHT22;67584;51.400;6.692;2023-11-21T12:21:24;11.70;85.70
78325;DHT22;67584;51.400;6.692;2023-11-21T12:23:50;12.00;85.20
78325;DHT22;67584;51.400;6.692;2023-11-21T12:26:16;12.30;85.40
78325;DHT22;67584;51.400;6.692;2023-11-21T12:28:42;12.80;84.80
78325;DHT22;67584;51.400;6.692;2023-11-21T12:31:07;13.10;83.30
78325;DHT22;67584;51.400;6.692;2023-11-21T12:33:33;13.00;81.80
78325;DHT22;67584;51.400;6.692;2023-11-21T12:36:00;12.70;81.80
78325;DHT22;67584;51.400;6.692;2023-11-21T12:38:34;12.40;82.40
78325;DHT22;67584;51.400;6.692;2023-11-21T12:41:00;12.20;82.80
78325;DHT22;67584;51.400;6.692;2023-11-21T12:43:26;12.50;83.40
78325;DHT22;67584;51.400;6.692;2023-11-21T12:46:07;12.60;82.80
78325;DHT22;67584;51.400;6.692;2023-11-21T12:48:37;12.60;83.30
78325;DHT22;67584;51.400;6.692;2023-11-21T12:51:05;12.50;83.40
78325;DHT22;67584;51.400;6.692;2023-11-21T12:53:32;12.30;83.50
78325;DHT22;67584;51.400;6.692;2023-11-21T12:56:10;12.00;84.20
78325;DHT22;67584;51.400;6.692;2023-11-21T12:58:40;11.80;84.30
78325;DHT22;67584;51.400;6.692;2023-11-21T13:01:13;11.80;84.40
78325;DHT22;67584;51.400;6.692;2023-11-21T13:03:43;11.60;84.70
78325;DHT22;67584;51.400;6.692;2023-11-21T13:06:10;11.50;85.00
78325;DHT22;67584;51.400;6.692;2023-11-21T13:08:37;11.50;85.30
78325;DHT22;67584;51.400;6.692;2023-11-21T13:11:05;11.40;85.50
78325;DHT22;67584;51.400;6.692;2023-11-21T13:13:31;11.40;85.60
78325;DHT22;67584;51.400;6.692;2023-11-21T13:16:02;11.10;86.20
78325;DHT22;67584;51.400;6.692;2023-11-21T13:18:30;11.00;86.20
78325;DHT22;67584;51.400;6.692;2023-11-21T13:20:58;10.90;86.40
78325;DHT22;67584;51.400;6.692;2023-11-21T13:23:25;10.90;86.50
78325;DHT22;67584;51.400;6.692;2023-11-21T13:25:52;10.90;87.20
78325;DHT22;67584;51.400;6.692;2023-11-21T13:28:18;10.90;87.30
78325;DHT22;67584;51.400;6.692;2023-11-21T13:30:46;10.80;88.00
78325;DHT22;67584;51.400;6.692;2023-11-21T13:33:13;10.60;88.60
78325;DHT22;67584;51.400;6.692;2023-11-21T13:35:44;10.60;88.60
78325;DHT22;67584;51.400;6.692;2023-11-21T13:38:15;10.60;88.80
78325;DHT22;67584;51.400;6.692;2023-11-21T13:40:51;10.40;89.00
78325;DHT22;67584;51.400;6.692;2023-11-21T13:43:21;10.40;88.90
78325;DHT22;67584;51.400;6.692;2023-11-21T13:45:48;10.40;89.30
78325;DHT22;67584;51.400;6.692;2023-11-21T13:48:23;10.30;89.30
78325;DHT22;67584;51.400;6.692;2023-11-21T13:50:57;10.40;89.40
78325;DHT22;67584;51.400;6.692;2023-11-21T13:53:47;10.30;89.40
78325;DHT22;67584;51.400;6.692;2023-11-21T13:56:15;10.30;89.60
78325;DHT22;67584;51.400;6.692;2023-11-21T13:58:51;10.20;89.70
78325;DHT22;67584;51.400;6.692;2023-11-21T14:01:22;10.30;89.80
78325;DHT22;67584;51.400;6.692;2023-11-21T14:04:02;10.30;89.90
78325;DHT22;67584;51.400;6.692;2023-11-21T14:06:51;10.30;90.00
78325;DHT22;67584;51.400;6.692;2023-11-21T14:09:22;10.20;89.90
78325;DHT22;67584;51.400;6.692;2023-11-21T14:11:49;10.30;90.00
78325;DHT22;67584;51.400;6.692;2023-11-21T14:14:15;10.20;89.90
78325;DHT22;67584;51.400;6.692;2023-11-21T14:16:42;10.20;89.90
78325;DHT22;67584;51.400;6.692;2023-11-21T14:19:07;10.20;90.20
78325;DHT22;67584;51.400;6.692;2023-11-21T14:21:41;10.20;90.20
78325;DHT22;67584;51.400;6.692;2023-11-21T14:24:09;10.20;90.20
78325;DHT22;67584;51.400;6.692;2023-11-21T14:26:35;10.20;89.90
78325;DHT22;67584;51.400;6.692;2023-11-21T14:29:01;10.20;90.00
78325;DHT22;67584;51.400;6.692;2023-11-21T14:31:28;10.20;90.00
78325;DHT22;67584;51.400;6.692;2023-11-21T14:33:56;10.20;90.00
78325;DHT22;67584;51.400;6.692;2023-11-21T14:36:22;10.10;89.80
78325;DHT22;67584;51.400;6.692;2023-11-21T14:38:49;10.10;90.10
78325;DHT22;67584;51.400;6.692;2023-11-21T14:41:15;10.00;89.90
78325;DHT22;67584;51.400;6.692;2023-11-21T14:43:40;10.10;90.10
78325;DHT22;67584;51.400;6.692;2023-11-21T14:46:07;10.00;89.90
78325;DHT22;67584;51.400;6.692;2023-11-21T14:48:36;10.10;90.00
78325;DHT22;67584;51.400;6.692;2023-11-21T14:51:22;9.80;90.20
78325;DHT22;67584;51.400;6.692;2023-11-21T14:53:53;9.90;90.10
78325;DHT22;67584;51.400;6.692;2023-11-21T14:56:22;9.90;90.20
78325;DHT22;67584;51.400;6.692;2023-11-21T14:58:53;9.90;90.20
78325;DHT22;67584;51.400;6.692;2023-11-21T15:01:20;9.80;90.40
78325;DHT22;67584;51.400;6.692;2023-11-21T15:03:59;9.90;90.40
78325;DHT22;67584;51.400;6.692;2023-11-21T15:06:24;9.70;90.30
78325;DHT22;67584;51.400;6.692;2023-11-21T15:08:54;9.80;90.40
78325;DHT22;67584;51.400;6.692;2023-11-21T15:11:40;9.70;90.40
78325;DHT22;67584;51.400;6.692;2023-11-21T15:14:07;9.80;90.30
78325;DHT22;67584;51.400;6.692;2023-11-21T15:16:35;9.70;90.50
78325;DHT22;67584;51.400;6.692;2023-11-21T15:19:06;9.70;90.60
78325;DHT22;67584;51.400;6.692;2023-11-21T15:21:32;9.70;90.40
78325;DHT22;67584;51.400;6.692;2023-11-21T15:23:58;9.70;90.50
78325;DHT22;67584;51.400;6.692;2023-11-21T15:26:24;9.70;90.50
78325;DHT22;67584;51.400;6.692;2023-11-21T15:28:49;9.50;90.40
78325;DHT22;67584;51.400;6.692;2023-11-21T15:31:15;9.50;90.40
78325;DHT22;67584;51.400;6.692;2023-11-21T15:33:45;9.50;90.40
78325;DHT22;67584;51.400;6.692;2023-11-21T15:36:11;9.50;90.20
78325;DHT22;67584;51.400;6.692;2023-11-21T15:38:38;9.40;90.10
78325;DHT22;67584;51.400;6.692;2023-11-21T15:41:04;9.40;89.80
78325;DHT22;67584;51.400;6.692;2023-11-21T15:43:32;9.40;89.80
78325;DHT22;67584;51.400;6.692;2023-11-21T15:45:58;9.20;89.70
78325;DHT22;67584;51.400;6.692;2023-11-21T15:48:24;9.30;89.60
78325;DHT22;67584;51.400;6.692;2023-11-21T15:50:51;9.30;89.80
78325;DHT22;67584;51.400;6.692;2023-11-21T15:53:17;9.30;89.90
78325;DHT22;67584;51.400;6.692;2023-11-21T15:55:43;9.30;89.80
78325;DHT22;67584;51.400;6.692;2023-11-21T15:58:09;9.30;90.00
78325;DHT22;67584;51.400;6.692;2023-11-21T16:00:34;9.20;89.90